Time;durP1;ratioP1;P1;durP2;ratioP2;P2;SDS_P1;SDS_P2;PMS_P1;PMS_P2;Temp;Humidity;BMP_temperature;BMP_pressure;BME280_temperature;BME280_humidity;BME280_pressure;Samples;Min_cycle;Max_cycle;Signal;HPM_P1;HPM_P2
2023/02/25 00:00:24;;;;;;;10.10;6.25;;;7.00;80.10;;;;;;4970910;28;20027;-56
2023/02/25 00:02:51;;;;;;;9.32;6.68;;;7.00;80.00;;;;;;4978276;28;20077;-56
2023/02/25 00:05:17;;;;;;;10.10;6.47;;;7.00;80.10;;;;;;4969398;28;20055;-56
2023/02/25 00:07:43;;;;;;;9.23;6.20;;;7.00;80.20;;;;;;4971821;28;20030;-59
2023/02/25 00:10:10;;;;;;;7.63;5.68;;;7.00;80.20;;;;;;4971539;28;20027;-60
2023/02/25 00:12:36;;;;;;;9.27;6.10;;;7.00;80.20;;;;;;4963798;28;20034;-60
2023/02/25 00:15:04;;;;;;;7.68;5.88;;;7.00;80.10;;;;;;4972164;28;20121;-60
2023/02/25 00:17:31;;;;;;;7.75;6.03;;;7.00;80.20;;;;;;4974332;28;20058;-60
2023/02/25 00:19:57;;;;;;;7.97;5.70;;;7.00;80.20;;;;;;4979017;28;20114;-59
2023/02/25 00:22:23;;;;;;;9.55;6.28;;;7.00;80.10;;;;;;4977587;28;20228;-60
2023/02/25 00:24:53;;;;;;;11.70;6.47;;;7.10;80.20;;;;;;4976667;28;20110;-58
2023/02/25 00:27:19;;;;;;;8.98;5.63;;;7.10;80.20;;;;;;4983049;28;20072;-60
2023/02/25 00:29:45;;;;;;;9.15;5.57;;;7.00;80.10;;;;;;4994688;28;20019;-60
2023/02/25 00:32:10;;;;;;;7.75;5.82;;;7.10;80.20;;;;;;4977586;28;20031;-60
2023/02/25 00:34:36;;;;;;;7.40;5.32;;;7.10;80.30;;;;;;4977647;28;20045;-60
2023/02/25 00:37:02;;;;;;;10.35;6.32;;;7.00;80.20;;;;;;4986139;28;20027;-59
2023/02/25 00:39:42;;;;;;;9.05;5.70;;;7.00;80.40;;;;;;4979668;28;20031;-59
2023/02/25 00:42:13;;;;;;;6.25;5.53;;;7.00;80.40;;;;;;4983848;28;20115;-61
2023/02/25 00:44:39;;;;;;;7.60;5.35;;;7.00;80.50;;;;;;4974348;28;20070;-59
2023/02/25 00:47:05;;;;;;;7.15;5.22;;;7.00;80.40;;;;;;4987224;28;20037;-59
2023/02/25 00:49:31;;;;;;;8.65;6.03;;;7.00;80.40;;;;;;4969034;28;20031;-60
2023/02/25 00:51:58;;;;;;;8.25;5.65;;;7.00;80.70;;;;;;4979844;28;20150;-59
2023/02/25 00:54:24;;;;;;;7.35;5.13;;;7.00;80.90;;;;;;4978597;28;20038;-59
2023/02/25 00:56:49;;;;;;;6.68;4.80;;;7.00;81.00;;;;;;4973454;28;20114;-60
2023/02/25 00:59:15;;;;;;;8.52;5.28;;;7.00;81.00;;;;;;4985034;28;20158;-60
2023/02/25 01:01:41;;;;;;;8.48;5.78;;;7.00;81.00;;;;;;4971968;28;20157;-53
2023/02/25 01:04:08;;;;;;;8.90;5.80;;;7.00;81.10;;;;;;4965888;28;20047;-53
2023/02/25 01:06:35;;;;;;;7.80;5.18;;;7.00;81.10;;;;;;4980682;28;20105;-52
2023/02/25 01:09:02;;;;;;;6.85;5.05;;;7.00;81.20;;;;;;4979495;28;20030;-54
2023/02/25 01:11:31;;;;;;;10.23;5.90;;;7.00;81.10;;;;;;4992917;28;20532;-57
2023/02/25 01:14:13;;;;;;;7.60;5.30;;;7.00;81.20;;;;;;4977092;28;20030;-55
2023/02/25 01:16:39;;;;;;;7.65;5.28;;;7.00;81.20;;;;;;4979939;28;20033;-53
2023/02/25 01:19:08;;;;;;;8.20;5.47;;;7.00;81.10;;;;;;4979446;28;20030;-52
2023/02/25 01:21:37;;;;;;;7.13;4.85;;;7.00;81.40;;;;;;4981110;28;20500;-52
2023/02/25 01:24:15;;;;;;;6.63;4.65;;;7.00;81.30;;;;;;4970134;28;20497;-48
2023/02/25 01:26:43;;;;;;;7.10;5.10;;;7.00;81.40;;;;;;4979412;28;20037;-52
2023/02/25 01:29:12;;;;;;;7.88;5.30;;;7.00;81.40;;;;;;4979974;28;20130;-53
2023/02/25 01:31:39;;;;;;;6.78;5.00;;;7.00;81.40;;;;;;4983924;28;20109;-60
2023/02/25 01:34:06;;;;;;;6.80;4.97;;;7.00;81.50;;;;;;4965430;28;20050;-61
2023/02/25 01:36:33;;;;;;;8.38;5.40;;;7.00;81.70;;;;;;4983587;28;20034;-60
2023/02/25 01:39:00;;;;;;;8.10;5.80;;;7.00;81.60;;;;;;4981154;28;20553;-59
2023/02/25 01:41:27;;;;;;;7.18;5.15;;;7.10;81.60;;;;;;4981615;28;20057;-59
2023/02/25 01:44:13;;;;;;;7.18;5.32;;;7.00;81.70;;;;;;4972743;28;20042;-60
2023/02/25 01:46:41;;;;;;;9.07;5.55;;;7.10;81.60;;;;;;4979260;28;20470;-60
2023/02/25 01:49:22;;;;;;;7.05;4.72;;;7.10;81.90;;;;;;4967051;28;20177;-60
2023/02/25 01:51:55;;;;;;;7.03;5.25;;;7.10;81.90;;;;;;4985077;28;20030;-60
2023/02/25 01:54:21;;;;;;;7.05;5.28;;;7.10;81.90;;;;;;4970505;28;20032;-60
2023/02/25 01:56:51;;;;;;;6.65;5.68;;;7.00;81.80;;;;;;4982837;28;20034;-60
2023/02/25 01:59:18;;;;;;;7.00;5.53;;;7.00;81.90;;;;;;4976270;28;20046;-59
2023/02/25 02:01:45;;;;;;;6.80;5.20;;;7.00;81.90;;;;;;4975784;28;20065;-59
2023/02/25 02:04:13;;;;;;;7.30;5.65;;;7.00;82.10;;;;;;4993455;28;20039;-60
2023/02/25 02:06:45;;;;;;;7.65;5.20;;;7.00;82.30;;;;;;4978620;28;20113;-60
2023/02/25 02:09:13;;;;;;;8.25;6.15;;;7.00;82.50;;;;;;4981608;28;20489;-60
2023/02/25 02:11:39;;;;;;;9.18;5.55;;;7.00;82.60;;;;;;4977554;28;20038;-60
2023/02/25 02:14:07;;;;;;;7.25;5.35;;;7.00;82.50;;;;;;4975509;28;20050;-60
2023/02/25 02:17:04;;;;;;;7.50;5.43;;;7.00;82.70;;;;;;4972196;28;20023;-60
2023/02/25 02:20:11;;;;;;;6.90;4.85;;;6.90;82.60;;;;;;4970578;28;20030;-60
2023/02/25 02:23:02;;;;;;;8.40;5.63;;;6.90;82.60;;;;;;4978759;28;20058;-59
2023/02/25 02:26:00;;;;;;;8.10;5.30;;;6.90;82.90;;;;;;4969770;28;20102;-61
2023/02/25 02:28:50;;;;;;;9.43;6.00;;;6.90;83.20;;;;;;4962115;28;20057;-60
2023/02/25 02:31:31;;;;;;;7.70;5.55;;;6.90;83.10;;;;;;5007572;28;20500;-60
2023/02/25 02:34:25;;;;;;;8.45;6.07;;;6.90;83.30;;;;;;4974197;28;20971;-60
2023/02/25 02:37:04;;;;;;;7.07;5.90;;;6.90;83.30;;;;;;4974512;28;20098;-63
2023/02/25 02:40:14;;;;;;;7.25;5.32;;;6.90;83.30;;;;;;4968715;28;20030;-63
2023/02/25 02:43:19;;;;;;;7.93;6.00;;;6.90;83.40;;;;;;5015619;28;20035;-62
2023/02/25 02:45:53;;;;;;;7.75;5.90;;;6.90;83.50;;;;;;4970679;28;20137;-60
2023/02/25 02:49:00;;;;;;;6.38;5.10;;;6.90;83.60;;;;;;4976324;28;20466;-59
2023/02/25 02:51:35;;;;;;;7.50;5.82;;;6.90;83.60;;;;;;4936557;28;20216;-60
2023/02/25 02:54:04;;;;;;;8.43;5.63;;;7.00;83.80;;;;;;4987000;28;20034;-60
2023/02/25 02:56:33;;;;;;;7.93;5.60;;;6.90;83.90;;;;;;4978213;28;20022;-59
2023/02/25 02:59:06;;;;;;;10.10;6.50;;;6.90;84.00;;;;;;4974470;28;20058;-60
2023/02/25 03:01:41;;;;;;;10.98;6.05;;;7.00;84.20;;;;;;4975344;28;20030;-61
2023/02/25 03:04:10;;;;;;;7.65;5.85;;;7.00;84.10;;;;;;4973490;28;20038;-59
2023/02/25 03:06:43;;;;;;;8.18;6.40;;;7.00;84.20;;;;;;4964634;28;20474;-60
2023/02/25 03:09:20;;;;;;;9.02;6.03;;;6.90;84.20;;;;;;4975453;28;20133;-61
2023/02/25 03:11:45;;;;;;;7.47;5.70;;;6.90;84.30;;;;;;4984685;28;20029;-60
2023/02/25 03:14:12;;;;;;;8.07;5.97;;;6.90;84.50;;;;;;4977968;28;20114;-61
2023/02/25 03:16:46;;;;;;;10.10;7.00;;;7.00;84.80;;;;;;4970612;28;20023;-59
2023/02/25 03:19:20;;;;;;;8.25;5.90;;;7.00;84.90;;;;;;4974781;28;20039;-61
2023/02/25 03:21:54;;;;;;;8.45;6.15;;;7.00;84.70;;;;;;4976415;28;20046;-61
2023/02/25 03:24:24;;;;;;;8.95;5.85;;;7.00;84.70;;;;;;4973584;28;20042;-60
2023/02/25 03:26:50;;;;;;;9.70;6.80;;;7.00;84.80;;;;;;4973190;28;20101;-61
2023/02/25 03:29:20;;;;;;;10.45;6.95;;;7.00;84.70;;;;;;4978297;28;20066;-61
2023/02/25 03:31:58;;;;;;;12.20;7.38;;;7.10;84.80;;;;;;4978663;28;20427;-60
2023/02/25 03:34:30;;;;;;;9.95;6.57;;;7.10;84.70;;;;;;4962372;28;20130;-61
2023/02/25 03:37:02;;;;;;;10.40;7.55;;;7.10;84.70;;;;;;4972031;28;20283;-61
2023/02/25 03:39:30;;;;;;;12.02;7.32;;;7.10;84.70;;;;;;4987445;28;20026;-60
2023/02/25 03:42:00;;;;;;;11.23;7.78;;;7.00;84.70;;;;;;4973176;28;20031;-61
2023/02/25 03:44:40;;;;;;;10.38;7.03;;;7.00;84.80;;;;;;4978300;28;20118;-60
2023/02/25 03:47:08;;;;;;;8.57;6.18;;;7.00;85.00;;;;;;4972459;28;20042;-60
2023/02/25 03:49:49;;;;;;;9.35;7.18;;;7.00;85.20;;;;;;4976932;28;20026;-61
2023/02/25 03:52:18;;;;;;;11.00;7.95;;;6.90;85.20;;;;;;4976568;28;20106;-61
2023/02/25 03:54:52;;;;;;;9.98;6.65;;;6.90;85.40;;;;;;4970835;28;20174;-62
2023/02/25 03:57:19;;;;;;;10.07;7.65;;;7.00;85.60;;;;;;4979844;28;20131;-62
2023/02/25 03:59:45;;;;;;;10.55;6.88;;;7.00;85.70;;;;;;4978017;28;20031;-62
2023/02/25 04:02:12;;;;;;;12.38;8.18;;;7.00;85.70;;;;;;4991529;28;20026;-60
2023/02/25 04:04:38;;;;;;;10.80;8.13;;;7.00;85.70;;;;;;4971839;28;20031;-60
2023/02/25 04:07:03;;;;;;;10.30;7.60;;;7.00;85.70;;;;;;4966793;28;20031;-61
2023/02/25 04:09:29;;;;;;;12.30;7.72;;;7.00;85.70;;;;;;4975871;28;20026;-61
2023/02/25 04:11:55;;;;;;;11.30;7.43;;;7.00;85.80;;;;;;4990002;28;20030;-53
2023/02/25 04:14:22;;;;;;;12.10;7.68;;;6.90;85.70;;;;;;4968779;28;20045;-56
2023/02/25 04:16:48;;;;;;;10.45;7.97;;;7.00;86.00;;;;;;4970911;28;20141;-60
2023/02/25 04:19:13;;;;;;;15.65;8.13;;;6.90;86.00;;;;;;4974797;28;20114;-60
2023/02/25 04:21:39;;;;;;;13.48;8.13;;;6.90;86.00;;;;;;4971433;28;20061;-57
2023/02/25 04:24:05;;;;;;;14.30;8.68;;;6.90;86.20;;;;;;4968750;28;20047;-53
2023/02/25 04:26:32;;;;;;;13.27;8.52;;;6.90;86.40;;;;;;4965887;28;20397;-53
2023/02/25 04:28:58;;;;;;;12.02;7.45;;;6.90;86.40;;;;;;4968017;28;20032;-51
2023/02/25 04:31:23;;;;;;;10.18;6.88;;;6.90;86.60;;;;;;4966257;28;20038;-51
2023/02/25 04:33:49;;;;;;;11.85;7.97;;;6.90;86.70;;;;;;4972436;28;20027;-53
2023/02/25 04:36:22;;;;;;;9.88;7.45;;;6.90;86.80;;;;;;4971219;28;20059;-55
2023/02/25 04:38:48;;;;;;;12.43;7.72;;;6.90;86.80;;;;;;4971223;28;20019;-53
2023/02/25 04:41:13;;;;;;;9.20;7.25;;;6.90;87.00;;;;;;4982401;28;20725;-54
2023/02/25 04:43:39;;;;;;;13.57;9.00;;;6.90;86.90;;;;;;4974589;28;20108;-56
2023/02/25 04:46:04;;;;;;;13.95;7.97;;;7.00;87.10;;;;;;4980450;28;20034;-54
2023/02/25 04:48:30;;;;;;;11.27;8.07;;;7.00;87.20;;;;;;4978504;28;20030;-55
2023/02/25 04:51:01;;;;;;;10.93;7.63;;;7.00;87.10;;;;;;4972886;28;20512;-55
2023/02/25 04:53:27;;;;;;;12.23;8.25;;;7.00;87.10;;;;;;4975551;28;20035;-54
2023/02/25 04:55:52;;;;;;;10.82;7.70;;;7.00;87.20;;;;;;4973919;28;20588;-53
2023/02/25 04:58:18;;;;;;;14.10;8.73;;;7.00;87.10;;;;;;4979257;28;20054;-54
2023/02/25 05:00:47;;;;;;;9.35;7.15;;;7.00;87.10;;;;;;4985452;28;20042;-53
2023/02/25 05:03:13;;;;;;;13.05;8.27;;;7.00;87.30;;;;;;4969468;28;20022;-51
2023/02/25 05:05:39;;;;;;;13.50;8.48;;;7.00;87.20;;;;;;4973278;28;20386;-57
2023/02/25 05:08:05;;;;;;;11.18;7.75;;;7.10;87.30;;;;;;4975152;28;20041;-55
2023/02/25 05:10:31;;;;;;;13.10;8.75;;;7.10;87.50;;;;;;4976128;28;20110;-57
2023/02/25 05:12:56;;;;;;;11.00;7.38;;;7.10;87.30;;;;;;4975404;28;20130;-56
2023/02/25 05:15:22;;;;;;;11.23;7.95;;;7.10;87.30;;;;;;4969907;28;20035;-51
2023/02/25 05:17:48;;;;;;;10.07;7.45;;;7.10;87.50;;;;;;4980706;28;20031;-54
2023/02/25 05:20:14;;;;;;;11.32;8.07;;;7.10;87.50;;;;;;4985217;28;20040;-53
2023/02/25 05:22:40;;;;;;;13.43;8.10;;;7.20;87.80;;;;;;4973832;28;20043;-54
2023/02/25 05:25:07;;;;;;;13.02;8.70;;;7.20;87.80;;;;;;4976507;28;20079;-54
2023/02/25 05:27:34;;;;;;;13.50;9.20;;;7.30;87.90;;;;;;4977501;28;20110;-51
2023/02/25 05:30:00;;;;;;;12.95;9.35;;;7.30;87.50;;;;;;4987788;28;20038;-55
2023/02/25 05:32:26;;;;;;;12.60;9.02;;;7.30;87.40;;;;;;4976910;28;20367;-54
2023/02/25 05:34:51;;;;;;;13.05;8.63;;;7.40;87.30;;;;;;4976069;28;20042;-51
2023/02/25 05:37:17;;;;;;;11.73;8.85;;;7.30;87.10;;;;;;4975274;28;20093;-52
2023/02/25 05:39:43;;;;;;;13.32;8.88;;;7.40;87.10;;;;;;4973329;28;20497;-52
2023/02/25 05:42:08;;;;;;;16.08;9.07;;;7.40;87.00;;;;;;4972897;28;20061;-59
2023/02/25 05:44:34;;;;;;;12.57;8.40;;;7.40;87.10;;;;;;4975755;28;20038;-52
2023/02/25 05:47:00;;;;;;;13.55;8.85;;;7.40;87.10;;;;;;4977405;28;20104;-50
2023/02/25 05:49:25;;;;;;;13.32;8.90;;;7.40;87.10;;;;;;4985697;28;20030;-54
2023/02/25 05:51:51;;;;;;;13.63;8.50;;;7.40;87.00;;;;;;4988195;28;20528;-50
2023/02/25 05:54:17;;;;;;;11.00;8.07;;;7.40;87.50;;;;;;4976978;28;20023;-52
2023/02/25 05:56:44;;;;;;;12.23;8.38;;;7.40;87.00;;;;;;4970023;28;20153;-52
2023/02/25 05:59:10;;;;;;;12.82;8.68;;;7.40;86.80;;;;;;4982813;28;20034;-53
2023/02/25 06:01:36;;;;;;;12.23;8.55;;;7.40;86.90;;;;;;4973213;28;20082;-55
2023/02/25 06:04:02;;;;;;;13.88;8.45;;;7.40;86.80;;;;;;4982219;28;20097;-53
2023/02/25 06:06:29;;;;;;;14.38;8.95;;;7.40;86.70;;;;;;4977759;28;20082;-52
2023/02/25 06:08:56;;;;;;;13.70;8.70;;;7.40;86.90;;;;;;4979380;28;20041;-53
2023/02/25 06:11:27;;;;;;;13.20;9.02;;;7.40;87.00;;;;;;4980656;28;20031;-50
2023/02/25 06:13:55;;;;;;;14.05;8.60;;;7.50;86.90;;;;;;4975755;28;20474;-54
2023/02/25 06:16:21;;;;;;;10.20;8.05;;;7.40;86.90;;;;;;4980074;28;20031;-52
2023/02/25 06:18:48;;;;;;;14.48;9.45;;;7.40;87.10;;;;;;4971644;28;20050;-54
2023/02/25 06:21:14;;;;;;;12.48;8.40;;;7.50;87.20;;;;;;4972101;28;20022;-54
2023/02/25 06:23:41;;;;;;;14.32;9.35;;;7.50;87.00;;;;;;4991323;28;20026;-56
2023/02/25 06:26:10;;;;;;;11.90;8.63;;;7.50;86.80;;;;;;4986441;28;20034;-51
2023/02/25 06:28:35;;;;;;;14.07;8.45;;;7.50;86.70;;;;;;4978939;28;20039;-52
2023/02/25 06:31:01;;;;;;;11.57;7.93;;;7.60;86.70;;;;;;4977215;28;20037;-50
2023/02/25 06:33:30;;;;;;;14.57;9.00;;;7.50;86.60;;;;;;4981524;28;20026;-56
2023/02/25 06:35:56;;;;;;;11.13;7.90;;;7.60;86.60;;;;;;4977749;28;20069;-62
2023/02/25 06:38:22;;;;;;;12.07;8.75;;;7.50;86.50;;;;;;4985492;28;20089;-62
2023/02/25 06:40:48;;;;;;;11.13;8.13;;;7.50;86.60;;;;;;4967122;28;20027;-61
2023/02/25 06:43:17;;;;;;;11.30;7.97;;;7.60;86.90;;;;;;4975084;28;20043;-61
2023/02/25 06:45:43;;;;;;;11.43;8.23;;;7.60;86.50;;;;;;4990723;28;20038;-61
2023/02/25 06:48:09;;;;;;;14.27;9.20;;;7.60;86.50;;;;;;4976374;28;20031;-60
2023/02/25 06:50:38;;;;;;;13.65;9.13;;;7.60;86.50;;;;;;4977355;28;20019;-60
2023/02/25 06:53:04;;;;;;;11.77;8.93;;;7.60;86.40;;;;;;4968694;28;20030;-61
2023/02/25 06:55:30;;;;;;;13.25;8.98;;;7.50;86.50;;;;;;4974263;28;20037;-60
2023/02/25 06:57:56;;;;;;;13.90;9.18;;;7.60;86.60;;;;;;4974141;28;20440;-60
2023/02/25 07:00:22;;;;;;;12.63;8.93;;;7.60;86.60;;;;;;4971021;28;20434;-60
2023/02/25 07:02:48;;;;;;;13.27;9.05;;;7.50;86.80;;;;;;4984508;28;20109;-61
2023/02/25 07:05:13;;;;;;;10.95;8.32;;;7.60;86.70;;;;;;4971997;28;20125;-61
2023/02/25 07:07:39;;;;;;;11.52;7.50;;;7.60;86.60;;;;;;4972806;28;20049;-60
2023/02/25 07:10:05;;;;;;;13.55;9.15;;;7.60;86.70;;;;;;4978430;28;20039;-62
2023/02/25 07:12:31;;;;;;;14.95;9.88;;;7.60;86.50;;;;;;4984322;28;20033;-61
2023/02/25 07:14:59;;;;;;;14.50;9.88;;;7.70;86.40;;;;;;4980961;28;20034;-60
2023/02/25 07:17:25;;;;;;;13.07;9.50;;;7.70;86.10;;;;;;4985332;28;20018;-60
2023/02/25 07:19:51;;;;;;;15.90;10.20;;;7.60;86.10;;;;;;4987780;28;20196;-61
2023/02/25 07:22:17;;;;;;;12.65;8.55;;;7.60;86.50;;;;;;4975024;28;20066;-60
2023/02/25 07:24:44;;;;;;;13.80;10.38;;;7.70;86.70;;;;;;4977264;28;20038;-61
2023/02/25 07:27:12;;;;;;;16.80;9.95;;;7.70;86.50;;;;;;4972213;28;20476;-61
2023/02/25 07:29:38;;;;;;;14.73;9.77;;;7.70;86.20;;;;;;4973304;28;20084;-60
2023/02/25 07:32:04;;;;;;;14.65;8.85;;;7.70;86.30;;;;;;4972538;28;20041;-61
2023/02/25 07:34:30;;;;;;;13.88;9.32;;;7.70;86.30;;;;;;4969140;28;20027;-61
2023/02/25 07:36:57;;;;;;;10.95;8.15;;;7.80;86.30;;;;;;4968389;28;20236;-63
2023/02/25 07:39:23;;;;;;;13.10;9.40;;;7.80;86.00;;;;;;4971598;28;20031;-60
2023/02/25 07:41:48;;;;;;;12.60;8.80;;;7.80;86.00;;;;;;4974145;28;20026;-61
2023/02/25 07:44:14;;;;;;;13.27;9.10;;;7.80;86.20;;;;;;4972521;28;20038;-60
2023/02/25 07:46:40;;;;;;;14.43;8.82;;;7.80;86.10;;;;;;4973660;28;20473;-61
2023/02/25 07:49:06;;;;;;;12.75;9.15;;;7.90;85.90;;;;;;4974290;28;20035;-61
2023/02/25 07:51:32;;;;;;;13.82;9.10;;;7.90;86.00;;;;;;4970088;28;20026;-60
2023/02/25 07:53:58;;;;;;;11.85;9.07;;;7.90;85.90;;;;;;4968148;28;20146;-60
2023/02/25 07:56:25;;;;;;;12.13;9.02;;;7.90;85.90;;;;;;4964536;28;20478;-60
2023/02/25 07:58:51;;;;;;;11.98;8.35;;;7.90;85.80;;;;;;4975989;28;20030;-60
2023/02/25 08:01:30;;;;;;;13.27;8.85;;;7.90;85.60;;;;;;4965450;28;20418;-61
2023/02/25 08:04:02;;;;;;;15.70;10.00;;;7.90;85.40;;;;;;4972576;28;20038;-60
2023/02/25 08:06:28;;;;;;;14.05;9.18;;;8.00;85.40;;;;;;4976061;28;20131;-60
2023/02/25 08:08:54;;;;;;;14.10;9.95;;;8.00;85.20;;;;;;4980281;28;20476;-59
2023/02/25 08:11:22;;;;;;;14.88;9.90;;;7.90;85.20;;;;;;4973212;28;20082;-60
2023/02/25 08:13:48;;;;;;;13.70;9.73;;;8.00;85.30;;;;;;4970655;28;20035;-59
2023/02/25 08:16:17;;;;;;;11.48;8.15;;;8.00;85.30;;;;;;4986304;28;20066;-59
2023/02/25 08:18:43;;;;;;;15.57;10.40;;;7.90;85.30;;;;;;4985814;28;20564;-60
2023/02/25 08:21:10;;;;;;;14.73;9.70;;;8.00;85.40;;;;;;4986207;28;20034;-59
2023/02/25 08:23:36;;;;;;;15.45;10.23;;;8.00;85.20;;;;;;4965243;28;20038;-60
2023/02/25 08:26:02;;;;;;;14.57;10.15;;;8.00;85.10;;;;;;4979586;28;20362;-59
2023/02/25 08:28:31;;;;;;;16.17;9.93;;;8.00;85.20;;;;;;4982486;28;20101;-59
2023/02/25 08:30:58;;;;;;;14.73;11.18;;;8.00;85.20;;;;;;4977456;28;20085;-59
2023/02/25 08:33:24;;;;;;;14.75;10.07;;;8.00;85.10;;;;;;4981050;28;20035;-59
2023/02/25 08:35:50;;;;;;;14.40;10.35;;;8.00;85.00;;;;;;4976015;28;20457;-59
2023/02/25 08:38:16;;;;;;;17.27;10.68;;;8.00;84.90;;;;;;4979974;28;20684;-60
2023/02/25 08:40:42;;;;;;;13.10;10.27;;;8.00;85.00;;;;;;4979734;28;20026;-59
2023/02/25 08:43:09;;;;;;;15.50;10.32;;;8.00;84.90;;;;;;4979165;28;20062;-59
2023/02/25 08:45:39;;;;;;;13.70;9.90;;;8.00;85.00;;;;;;4983209;28;20114;-59
2023/02/25 08:48:05;;;;;;;12.13;9.45;;;8.00;85.10;;;;;;4971154;28;20120;-59
2023/02/25 08:50:31;;;;;;;13.75;9.40;;;8.00;85.10;;;;;;4991476;28;20034;-59
2023/02/25 08:52:57;;;;;;;17.77;11.43;;;8.00;85.40;;;;;;4978048;28;20492;-59
2023/02/25 08:55:23;;;;;;;16.92;11.57;;;8.00;85.40;;;;;;4968691;28;20030;-59
2023/02/25 08:57:53;;;;;;;13.52;9.75;;;8.10;85.40;;;;;;4982192;28;20025;-59
2023/02/25 09:00:20;;;;;;;15.60;11.00;;;8.10;85.10;;;;;;4973369;28;20022;-59
2023/02/25 09:02:45;;;;;;;15.85;10.75;;;8.20;85.00;;;;;;4987536;28;20026;-59
2023/02/25 09:05:11;;;;;;;16.73;10.43;;;8.20;84.90;;;;;;4974603;28;20026;-59
2023/02/25 09:07:36;;;;;;;15.43;10.77;;;8.20;84.70;;;;;;5006023;28;20081;-60
2023/02/25 09:10:08;;;;;;;18.80;11.75;;;8.20;84.60;;;;;;4976836;28;20023;-59
2023/02/25 09:12:35;;;;;;;23.73;13.95;;;8.30;84.60;;;;;;4977956;28;20031;-60
2023/02/25 09:15:01;;;;;;;28.00;14.77;;;8.30;85.10;;;;;;4972189;28;20042;-60
2023/02/25 09:17:27;;;;;;;27.05;15.30;;;8.30;84.60;;;;;;4971381;28;20089;-62
2023/02/25 09:19:52;;;;;;;25.73;15.43;;;8.30;84.50;;;;;;4974511;28;20022;-62
2023/02/25 09:22:18;;;;;;;23.02;15.32;;;8.30;84.40;;;;;;4975502;28;20121;-62
2023/02/25 09:24:44;;;;;;;25.73;15.20;;;8.40;84.60;;;;;;4976352;28;20039;-62
2023/02/25 09:27:10;;;;;;;35.90;19.25;;;8.50;84.50;;;;;;4975113;28;20026;-56
2023/02/25 09:29:37;;;;;;;41.22;22.55;;;8.50;84.40;;;;;;4973644;28;20066;-52
2023/02/25 09:32:04;;;;;;;31.35;16.10;;;8.60;84.10;;;;;;4975108;28;20035;-52
2023/02/25 09:34:32;;;;;;;26.20;14.73;;;8.70;83.80;;;;;;4976658;28;20041;-53
2023/02/25 09:36:59;;;;;;;26.15;14.63;;;8.70;83.50;;;;;;4969485;28;20027;-56
2023/02/25 09:39:24;;;;;;;21.10;12.75;;;8.70;83.30;;;;;;4977454;28;20114;-51
2023/02/25 09:41:56;;;;;;;26.48;13.32;;;8.80;83.20;;;;;;4974409;28;20106;-50
2023/02/25 09:44:28;;;;;;;17.17;11.95;;;8.90;83.20;;;;;;4974091;28;20477;-53
2023/02/25 09:47:27;;;;;;;19.05;11.80;;;8.90;82.80;;;;;;4981327;28;20027;-53
2023/02/25 09:50:20;;;;;;;20.98;13.18;;;9.00;82.60;;;;;;4973163;28;20126;-55
2023/02/25 09:52:53;;;;;;;19.98;12.93;;;9.00;82.60;;;;;;4977145;28;20026;-54
2023/02/25 09:55:34;;;;;;;18.38;12.25;;;9.10;82.50;;;;;;4977298;28;20089;-53
2023/02/25 09:58:25;;;;;;;21.83;14.23;;;9.00;82.10;;;;;;4977214;28;20046;-52
2023/02/25 10:00:54;;;;;;;;;;;9.10;81.90;;;;;;4961234;28;20054;-49
2023/02/25 10:04:01;;;;;;;20.55;13.15;;;9.10;82.50;;;;;;4971647;28;20000;-50
2023/02/25 10:06:42;;;;;;;20.23;12.52;;;9.20;81.90;;;;;;4961978;28;20047;-54
2023/02/25 10:09:34;;;;;;;25.95;15.00;;;9.20;81.90;;;;;;4976124;28;20051;-51
2023/02/25 10:12:34;;;;;;;24.80;16.00;;;9.20;81.50;;;;;;4973692;28;20449;-52
2023/02/25 10:15:29;;;;;;;21.38;13.27;;;9.30;81.40;;;;;;4979368;28;20037;-51
2023/02/25 10:18:21;;;;;;;22.75;13.52;;;9.30;81.20;;;;;;4976298;28;20026;-51
2023/02/25 10:20:58;;;;;;;24.15;14.07;;;9.40;81.40;;;;;;4979561;28;20058;-54
2023/02/25 10:23:44;;;;;;;26.05;15.35;;;9.40;81.00;;;;;;4982872;28;20069;-55
2023/02/25 10:26:28;;;;;;;28.35;16.65;;;9.40;80.80;;;;;;4983050;28;20122;-52
2023/02/25 10:29:05;;;;;;;37.50;19.48;;;9.50;80.80;;;;;;4984263;28;20033;-52
2023/02/25 10:31:31;;;;;;;31.70;16.42;;;9.50;80.60;;;;;;4974758;28;20031;-53
2023/02/25 10:34:10;;;;;;;21.40;14.85;;;9.50;80.60;;;;;;4980164;28;20023;-53
2023/02/25 10:36:42;;;;;;;30.67;16.80;;;9.50;80.20;;;;;;4977078;28;20398;-56
2023/02/25 10:39:09;;;;;;;32.40;17.35;;;9.50;80.20;;;;;;4984808;28;20471;-51
2023/02/25 10:41:35;;;;;;;36.95;20.45;;;9.50;80.40;;;;;;4973915;28;20441;-56
2023/02/25 10:44:01;;;;;;;42.15;24.35;;;9.50;80.30;;;;;;4967579;28;20106;-52
2023/02/25 10:47:03;;;;;;;39.50;21.48;;;9.50;80.50;;;;;;4973238;28;20037;-54
2023/02/25 10:49:36;;;;;;;24.02;15.10;;;9.60;80.40;;;;;;4956819;28;20032;-52
2023/02/25 10:52:14;;;;;;;26.85;16.95;;;9.60;80.30;;;;;;4968725;28;20489;-51
2023/02/25 10:54:50;;;;;;;24.92;15.23;;;9.70;80.10;;;;;;4975218;28;20465;-52
2023/02/25 10:57:24;;;;;;;20.33;13.77;;;9.70;79.80;;;;;;4984201;28;20057;-56
2023/02/25 11:00:00;;;;;;;19.25;12.85;;;9.70;79.70;;;;;;4977247;28;20068;-51
2023/02/25 11:02:30;;;;;;;19.98;13.20;;;9.80;79.80;;;;;;4971839;28;20030;-56
2023/02/25 11:04:56;;;;;;;17.45;12.52;;;9.80;79.80;;;;;;4973950;28;20045;-57
2023/02/25 11:07:42;;;;;;;22.25;14.07;;;9.80;79.90;;;;;;4977444;28;20397;-49
2023/02/25 11:10:15;;;;;;;19.58;13.80;;;9.80;79.60;;;;;;4971603;28;20046;-54
2023/02/25 11:12:52;;;;;;;17.10;11.63;;;9.90;79.60;;;;;;4974743;28;20026;-52
2023/02/25 11:15:31;;;;;;;21.75;12.88;;;9.90;79.60;;;;;;4973193;28;20035;-55
2023/02/25 11:18:20;;;;;;;22.65;13.38;;;10.00;79.60;;;;;;4967558;28;20026;-54
2023/02/25 11:20:58;;;;;;;20.15;13.68;;;10.00;79.30;;;;;;4974060;28;20035;-49
2023/02/25 11:23:32;;;;;;;20.63;13.88;;;10.10;79.20;;;;;;4971167;28;20489;-55
2023/02/25 11:25:58;;;;;;;20.77;14.73;;;10.10;79.10;;;;;;4972522;28;20035;-52
2023/02/25 11:28:33;;;;;;;24.60;15.55;;;10.10;79.00;;;;;;4974157;28;20046;-52
2023/02/25 11:31:18;;;;;;;26.38;16.90;;;10.20;78.90;;;;;;4976240;28;20037;-51
2023/02/25 11:34:24;;;;;;;28.98;16.92;;;10.20;78.80;;;;;;4972183;28;20123;-56
2023/02/25 11:36:51;;;;;;;23.30;15.10;;;10.20;78.60;;;;;;4978438;28;20100;-54
2023/02/25 11:39:25;;;;;;;23.60;15.98;;;10.20;78.70;;;;;;4973437;28;20042;-54
2023/02/25 11:41:56;;;;;;;16.90;12.55;;;10.20;78.80;;;;;;4979744;28;20523;-55
2023/02/25 11:44:30;;;;;;;17.20;12.18;;;10.20;78.70;;;;;;4977995;28;20029;-50
2023/02/25 11:47:33;;;;;;;15.73;11.75;;;10.20;78.50;;;;;;4976810;28;20063;-51
2023/02/25 11:50:22;;;;;;;16.73;12.25;;;10.10;78.40;;;;;;4974585;28;20038;-51
2023/02/25 11:53:00;;;;;;;17.40;11.88;;;10.10;78.40;;;;;;4975356;28;20385;-52
2023/02/25 11:55:42;;;;;;;18.52;12.05;;;10.10;78.60;;;;;;4966779;28;20065;-55
2023/02/25 11:58:21;;;;;;;18.52;12.93;;;10.00;78.60;;;;;;4977569;28;20042;-53
2023/02/25 12:00:59;;;;;;;26.00;15.35;;;10.00;78.70;;;;;;4960538;28;20027;-51
2023/02/25 12:03:54;;;;;;;20.98;13.98;;;10.00;78.90;;;;;;4954289;28;20532;-54
2023/02/25 12:06:56;;;;;;;30.55;17.58;;;10.10;78.90;;;;;;4950328;28;20043;-51
2023/02/25 12:09:47;;;;;;;24.88;14.88;;;10.10;79.00;;;;;;4968213;28;20030;-52
2023/02/25 12:12:40;;;;;;;22.00;14.67;;;10.10;79.10;;;;;;4961540;28;20034;-52
2023/02/25 12:15:29;;;;;;;21.30;14.23;;;10.30;79.00;;;;;;4967247;28;20034;-56
2023/02/25 12:18:23;;;;;;;21.15;14.20;;;10.30;78.90;;;;;;4958689;28;20031;-51
2023/02/25 12:21:13;;;;;;;29.45;16.40;;;10.40;78.80;;;;;;4963916;28;20031;-54
2023/02/25 12:23:53;;;;;;;25.27;14.85;;;10.40;78.80;;;;;;4964497;28;20054;-51
2023/02/25 12:26:58;;;;;;;26.10;13.90;;;10.50;78.60;;;;;;4967590;28;20038;-51
2023/02/25 12:30:01;;;;;;;27.65;15.35;;;10.50;78.40;;;;;;4969649;28;20042;-54
2023/02/25 12:32:41;;;;;;;23.30;15.25;;;10.60;78.40;;;;;;4967944;28;20066;-54
2023/02/25 12:35:38;;;;;;;22.15;13.60;;;10.60;78.20;;;;;;4965100;28;20038;-55
2023/02/25 12:38:25;;;;;;;26.67;15.23;;;10.60;78.10;;;;;;4972258;28;20042;-53
2023/02/25 12:40:59;;;;;;;25.98;15.98;;;10.70;78.20;;;;;;4965496;28;20109;-60
2023/02/25 12:43:43;;;;;;;27.75;16.48;;;10.70;77.80;;;;;;4970365;28;20030;-61
2023/02/25 12:46:33;;;;;;;25.65;14.15;;;10.70;77.80;;;;;;4967794;28;20426;-61
2023/02/25 12:49:14;;;;;;;19.13;12.30;;;10.70;77.60;;;;;;4961261;28;20031;-61
2023/02/25 12:52:00;;;;;;;19.00;13.13;;;10.60;77.70;;;;;;4969697;28;20740;-61
2023/02/25 12:54:50;;;;;;;18.63;12.20;;;10.60;77.90;;;;;;4976486;28;20118;-62
2023/02/25 12:57:30;;;;;;;14.68;10.73;;;10.60;77.60;;;;;;4963814;28;20031;-60
2023/02/25 13:00:26;;;;;;;17.30;11.52;;;10.60;77.60;;;;;;4965961;28;20105;-60
2023/02/25 13:03:20;;;;;;;21.27;12.82;;;10.60;77.60;;;;;;4965171;28;20030;-61
2023/02/25 13:05:59;;;;;;;19.52;12.63;;;10.50;77.60;;;;;;4971819;28;20045;-60
2023/02/25 13:09:03;;;;;;;16.27;11.77;;;10.50;77.80;;;;;;4971519;28;20065;-59
2023/02/25 13:11:29;;;;;;;20.25;13.35;;;10.50;77.60;;;;;;4962636;28;20117;-60